sensor_id;sensor_type;location;lat;lon;timestamp;P1;P2;P0
64114;PMS5003;62188;35.640;139.748;2023-04-25T00:00:36;26;25;
64114;PMS5003;62188;35.640;139.748;2023-04-25T00:03:02;20;20;
64114;PMS5003;62188;35.640;139.748;2023-04-25T00:05:28;26;25;
64114;PMS5003;62188;35.640;139.748;2023-04-25T00:07:53;23;23;
64114;PMS5003;62188;35.640;139.748;2023-04-25T00:10:19;27;25;
64114;PMS5003;62188;35.640;139.748;2023-04-25T00:12:45;25;23;
64114;PMS5003;62188;35.640;139.748;2023-04-25T00:15:10;21;21;
64114;PMS5003;62188;35.640;139.748;2023-04-25T00:17:35;27;25;
64114;PMS5003;62188;35.640;139.748;2023-04-25T00:20:00;27;25;
64114;PMS5003;62188;35.640;139.748;2023-04-25T00:22:26;20;20;
64114;PMS5003;62188;35.640;139.748;2023-04-25T00:24:51;23;23;
64114;PMS5003;62188;35.640;139.748;2023-04-25T00:27:17;24;24;
64114;PMS5003;62188;35.640;139.748;2023-04-25T00:29:43;26;24;
64114;PMS5003;62188;35.640;139.748;2023-04-25T00:32:08;27;26;
64114;PMS5003;62188;35.640;139.748;2023-04-25T00:34:34;25;24;
64114;PMS5003;62188;35.640;139.748;2023-04-25T00:36:59;22;21;
64114;PMS5003;62188;35.640;139.748;2023-04-25T00:39:25;24;23;
64114;PMS5003;62188;35.640;139.748;2023-04-25T00:41:50;23;22;
64114;PMS5003;62188;35.640;139.748;2023-04-25T00:44:15;24;23;
64114;PMS5003;62188;35.640;139.748;2023-04-25T00:46:41;30;27;
64114;PMS5003;62188;35.640;139.748;2023-04-25T00:49:06;24;24;
64114;PMS5003;62188;35.640;139.748;2023-04-25T00:51:31;19;19;
64114;PMS5003;62188;35.640;139.748;2023-04-25T00:53:56;24;22;
64114;PMS5003;62188;35.640;139.748;2023-04-25T00:56:22;23;21;
64114;PMS5003;62188;35.640;139.748;2023-04-25T00:58:47;26;26;
64114;PMS5003;62188;35.640;139.748;2023-04-25T01:01:13;26;25;
64114;PMS5003;62188;35.640;139.748;2023-04-25T01:03:39;26;24;
64114;PMS5003;62188;35.640;139.748;2023-04-25T01:06:04;28;27;
64114;PMS5003;62188;35.640;139.748;2023-04-25T01:08:29;24;22;
64114;PMS5003;62188;35.640;139.748;2023-04-25T01:10:54;24;22;
64114;PMS5003;62188;35.640;139.748;2023-04-25T01:13:20;26;26;
64114;PMS5003;62188;35.640;139.748;2023-04-25T01:15:45;23;23;
64114;PMS5003;62188;35.640;139.748;2023-04-25T01:18:11;26;26;
64114;PMS5003;62188;35.640;139.748;2023-04-25T01:20:36;26;26;
64114;PMS5003;62188;35.640;139.748;2023-04-25T01:23:02;24;24;
64114;PMS5003;62188;35.640;139.748;2023-04-25T01:25:28;23;23;
64114;PMS5003;62188;35.640;139.748;2023-04-25T01:27:53;29;28;
64114;PMS5003;62188;35.640;139.748;2023-04-25T01:30:18;30;29;
64114;PMS5003;62188;35.640;139.748;2023-04-25T01:32:44;26;25;
64114;PMS5003;62188;35.640;139.748;2023-04-25T01:35:10;29;28;
64114;PMS5003;62188;35.640;139.748;2023-04-25T01:37:35;30;29;
64114;PMS5003;62188;35.640;139.748;2023-04-25T01:40:00;25;24;
64114;PMS5003;62188;35.640;139.748;2023-04-25T01:42:25;27;26;
64114;PMS5003;62188;35.640;139.748;2023-04-25T01:44:51;24;24;
64114;PMS5003;62188;35.640;139.748;2023-04-25T01:47:16;26;24;
64114;PMS5003;62188;35.640;139.748;2023-04-25T01:49:42;22;22;
64114;PMS5003;62188;35.640;139.748;2023-04-25T01:52:07;23;23;
64114;PMS5003;62188;35.640;139.748;2023-04-25T01:54:33;23;23;
64114;PMS5003;62188;35.640;139.748;2023-04-25T01:56:58;25;24;
64114;PMS5003;62188;35.640;139.748;2023-04-25T01:59:23;24;23;
64114;PMS5003;62188;35.640;139.748;2023-04-25T02:01:49;28;26;
64114;PMS5003;62188;35.640;139.748;2023-04-25T02:04:14;21;21;
64114;PMS5003;62188;35.640;139.748;2023-04-25T02:06:40;25;24;
64114;PMS5003;62188;35.640;139.748;2023-04-25T02:09:05;26;23;
64114;PMS5003;62188;35.640;139.748;2023-04-25T02:11:31;24;22;
64114;PMS5003;62188;35.640;139.748;2023-04-25T02:13:56;20;20;
64114;PMS5003;62188;35.640;139.748;2023-04-25T02:16:22;23;22;
64114;PMS5003;62188;35.640;139.748;2023-04-25T02:18:47;23;20;
64114;PMS5003;62188;35.640;139.748;2023-04-25T02:21:13;23;23;
64114;PMS5003;62188;35.640;139.748;2023-04-25T02:23:38;24;23;
64114;PMS5003;62188;35.640;139.748;2023-04-25T02:26:04;22;22;
64114;PMS5003;62188;35.640;139.748;2023-04-25T02:28:30;18;18;
64114;PMS5003;62188;35.640;139.748;2023-04-25T02:30:55;22;21;
64114;PMS5003;62188;35.640;139.748;2023-04-25T02:33:20;23;21;
64114;PMS5003;62188;35.640;139.748;2023-04-25T02:35:46;22;21;
64114;PMS5003;62188;35.640;139.748;2023-04-25T02:38:12;17;17;
64114;PMS5003;62188;35.640;139.748;2023-04-25T02:40:37;20;19;
64114;PMS5003;62188;35.640;139.748;2023-04-25T02:43:02;21;20;
64114;PMS5003;62188;35.640;139.748;2023-04-25T02:45:28;19;18;
64114;PMS5003;62188;35.640;139.748;2023-04-25T02:47:54;18;17;
64114;PMS5003;62188;35.640;139.748;2023-04-25T02:50:19;17;17;
64114;PMS5003;62188;35.640;139.748;2023-04-25T02:52:45;19;18;
64114;PMS5003;62188;35.640;139.748;2023-04-25T02:55:10;20;20;
64114;PMS5003;62188;35.640;139.748;2023-04-25T02:57:36;20;19;
64114;PMS5003;62188;35.640;139.748;2023-04-25T03:00:01;19;18;
64114;PMS5003;62188;35.640;139.748;2023-04-25T03:02:27;20;19;
64114;PMS5003;62188;35.640;139.748;2023-04-25T03:04:52;17;17;
64114;PMS5003;62188;35.640;139.748;2023-04-25T03:07:18;22;19;
64114;PMS5003;62188;35.640;139.748;2023-04-25T03:09:43;21;20;
64114;PMS5003;62188;35.640;139.748;2023-04-25T03:12:08;18;18;
64114;PMS5003;62188;35.640;139.748;2023-04-25T03:14:34;19;18;
64114;PMS5003;62188;35.640;139.748;2023-04-25T03:16:59;18;18;
64114;PMS5003;62188;35.640;139.748;2023-04-25T03:19:25;22;19;
64114;PMS5003;62188;35.640;139.748;2023-04-25T03:21:50;20;20;
64114;PMS5003;62188;35.640;139.748;2023-04-25T03:24:15;21;20;
64114;PMS5003;62188;35.640;139.748;2023-04-25T03:26:41;17;17;
64114;PMS5003;62188;35.640;139.748;2023-04-25T03:29:06;19;19;
64114;PMS5003;62188;35.640;139.748;2023-04-25T03:31:31;19;18;
64114;PMS5003;62188;35.640;139.748;2023-04-25T03:33:57;19;19;
64114;PMS5003;62188;35.640;139.748;2023-04-25T03:36:22;18;18;
64114;PMS5003;62188;35.640;139.748;2023-04-25T03:38:48;19;18;
64114;PMS5003;62188;35.640;139.748;2023-04-25T03:41:13;20;19;
64114;PMS5003;62188;35.640;139.748;2023-04-25T03:43:39;20;19;
64114;PMS5003;62188;35.640;139.748;2023-04-25T03:46:04;20;19;
64114;PMS5003;62188;35.640;139.748;2023-04-25T03:48:30;22;20;
64114;PMS5003;62188;35.640;139.748;2023-04-25T03:50:56;20;20;
64114;PMS5003;62188;35.640;139.748;2023-04-25T03:53:21;19;19;
64114;PMS5003;62188;35.640;139.748;2023-04-25T03:55:46;21;20;
64114;PMS5003;62188;35.640;139.748;2023-04-25T03:58:12;19;18;
64114;PMS5003;62188;35.640;139.748;2023-04-25T04:00:38;18;17;
64114;PMS5003;62188;35.640;139.748;2023-04-25T04:03:03;21;20;
64114;PMS5003;62188;35.640;139.748;2023-04-25T04:05:29;19;18;
64114;PMS5003;62188;35.640;139.748;2023-04-25T04:07:54;18;18;
64114;PMS5003;62188;35.640;139.748;2023-04-25T04:10:20;18;18;
64114;PMS5003;62188;35.640;139.748;2023-04-25T04:12:45;17;16;
64114;PMS5003;62188;35.640;139.748;2023-04-25T04:15:11;18;17;
64114;PMS5003;62188;35.640;139.748;2023-04-25T04:17:37;19;19;
64114;PMS5003;62188;35.640;139.748;2023-04-25T04:20:02;23;20;
64114;PMS5003;62188;35.640;139.748;2023-04-25T04:22:28;20;20;
64114;PMS5003;62188;35.640;139.748;2023-04-25T04:24:53;19;19;
64114;PMS5003;62188;35.640;139.748;2023-04-25T04:27:19;17;17;
64114;PMS5003;62188;35.640;139.748;2023-04-25T04:29:44;17;16;
64114;PMS5003;62188;35.640;139.748;2023-04-25T04:32:10;18;17;
64114;PMS5003;62188;35.640;139.748;2023-04-25T04:34:35;18;18;
64114;PMS5003;62188;35.640;139.748;2023-04-25T04:37:01;19;19;
64114;PMS5003;62188;35.640;139.748;2023-04-25T04:39:26;17;17;
64114;PMS5003;62188;35.640;139.748;2023-04-25T04:41:52;20;20;
64114;PMS5003;62188;35.640;139.748;2023-04-25T04:44:17;16;16;
64114;PMS5003;62188;35.640;139.748;2023-04-25T04:46:43;17;16;
64114;PMS5003;62188;35.640;139.748;2023-04-25T04:49:08;19;18;
64114;PMS5003;62188;35.640;139.748;2023-04-25T04:51:34;18;18;
64114;PMS5003;62188;35.640;139.748;2023-04-25T04:53:59;19;19;
64114;PMS5003;62188;35.640;139.748;2023-04-25T04:56:25;20;19;
64114;PMS5003;62188;35.640;139.748;2023-04-25T04:58:51;19;19;
64114;PMS5003;62188;35.640;139.748;2023-04-25T05:01:16;19;19;
64114;PMS5003;62188;35.640;139.748;2023-04-25T05:03:41;20;18;
64114;PMS5003;62188;35.640;139.748;2023-04-25T05:06:07;20;19;
64114;PMS5003;62188;35.640;139.748;2023-04-25T05:08:32;22;21;
64114;PMS5003;62188;35.640;139.748;2023-04-25T05:10:58;19;19;
64114;PMS5003;62188;35.640;139.748;2023-04-25T05:13:24;16;16;
64114;PMS5003;62188;35.640;139.748;2023-04-25T05:15:49;20;19;
64114;PMS5003;62188;35.640;139.748;2023-04-25T05:18:15;23;22;
64114;PMS5003;62188;35.640;139.748;2023-04-25T05:20:41;22;21;
64114;PMS5003;62188;35.640;139.748;2023-04-25T05:23:06;19;19;
64114;PMS5003;62188;35.640;139.748;2023-04-25T05:25:31;20;19;
64114;PMS5003;62188;35.640;139.748;2023-04-25T05:27:57;21;21;
64114;PMS5003;62188;35.640;139.748;2023-04-25T05:30:22;21;20;
64114;PMS5003;62188;35.640;139.748;2023-04-25T05:32:48;23;21;
64114;PMS5003;62188;35.640;139.748;2023-04-25T05:35:13;21;20;
64114;PMS5003;62188;35.640;139.748;2023-04-25T05:37:39;19;19;
64114;PMS5003;62188;35.640;139.748;2023-04-25T05:40:05;24;23;
64114;PMS5003;62188;35.640;139.748;2023-04-25T05:42:30;22;22;
64114;PMS5003;62188;35.640;139.748;2023-04-25T05:44:55;21;21;
64114;PMS5003;62188;35.640;139.748;2023-04-25T05:47:21;19;19;
64114;PMS5003;62188;35.640;139.748;2023-04-25T05:49:46;22;20;
64114;PMS5003;62188;35.640;139.748;2023-04-25T05:52:12;22;20;
64114;PMS5003;62188;35.640;139.748;2023-04-25T05:54:37;18;18;
64114;PMS5003;62188;35.640;139.748;2023-04-25T05:57:03;20;20;
64114;PMS5003;62188;35.640;139.748;2023-04-25T05:59:28;20;20;
64114;PMS5003;62188;35.640;139.748;2023-04-25T06:01:53;25;23;
64114;PMS5003;62188;35.640;139.748;2023-04-25T06:04:19;23;21;
64114;PMS5003;62188;35.640;139.748;2023-04-25T06:06:44;20;19;
64114;PMS5003;62188;35.640;139.748;2023-04-25T06:09:10;19;19;
64114;PMS5003;62188;35.640;139.748;2023-04-25T06:11:36;19;19;
64114;PMS5003;62188;35.640;139.748;2023-04-25T06:14:01;19;18;
64114;PMS5003;62188;35.640;139.748;2023-04-25T06:16:27;18;16;
64114;PMS5003;62188;35.640;139.748;2023-04-25T06:18:52;21;20;
64114;PMS5003;62188;35.640;139.748;2023-04-25T06:21:18;20;19;
64114;PMS5003;62188;35.640;139.748;2023-04-25T06:23:43;20;20;
64114;PMS5003;62188;35.640;139.748;2023-04-25T06:26:09;25;21;
64114;PMS5003;62188;35.640;139.748;2023-04-25T06:28:35;23;23;
64114;PMS5003;62188;35.640;139.748;2023-04-25T06:31:00;22;21;
64114;PMS5003;62188;35.640;139.748;2023-04-25T06:33:26;22;22;
64114;PMS5003;62188;35.640;139.748;2023-04-25T06:35:51;22;20;
64114;PMS5003;62188;35.640;139.748;2023-04-25T06:38:17;22;22;
64114;PMS5003;62188;35.640;139.748;2023-04-25T06:40:42;21;21;
64114;PMS5003;62188;35.640;139.748;2023-04-25T06:43:08;25;24;
64114;PMS5003;62188;35.640;139.748;2023-04-25T06:45:33;26;25;
64114;PMS5003;62188;35.640;139.748;2023-04-25T06:47:59;22;21;
64114;PMS5003;62188;35.640;139.748;2023-04-25T06:50:24;21;21;
64114;PMS5003;62188;35.640;139.748;2023-04-25T06:52:49;23;22;
64114;PMS5003;62188;35.640;139.748;2023-04-25T06:55:14;21;20;
64114;PMS5003;62188;35.640;139.748;2023-04-25T06:57:40;20;19;
64114;PMS5003;62188;35.640;139.748;2023-04-25T07:00:06;23;21;
64114;PMS5003;62188;35.640;139.748;2023-04-25T07:02:32;24;20;
64114;PMS5003;62188;35.640;139.748;2023-04-25T07:04:57;15;15;
64114;PMS5003;62188;35.640;139.748;2023-04-25T07:07:22;18;18;
64114;PMS5003;62188;35.640;139.748;2023-04-25T07:09:47;18;18;
64114;PMS5003;62188;35.640;139.748;2023-04-25T07:12:13;25;23;
64114;PMS5003;62188;35.640;139.748;2023-04-25T07:14:38;21;20;
64114;PMS5003;62188;35.640;139.748;2023-04-25T07:17:04;20;20;
64114;PMS5003;62188;35.640;139.748;2023-04-25T07:19:30;19;19;
64114;PMS5003;62188;35.640;139.748;2023-04-25T07:21:55;19;19;
64114;PMS5003;62188;35.640;139.748;2023-04-25T07:24:20;20;20;
64114;PMS5003;62188;35.640;139.748;2023-04-25T07:26:46;20;20;
64114;PMS5003;62188;35.640;139.748;2023-04-25T07:29:12;22;20;
64114;PMS5003;62188;35.640;139.748;2023-04-25T07:31:37;20;18;
64114;PMS5003;62188;35.640;139.748;2023-04-25T07:34:02;21;20;
64114;PMS5003;62188;35.640;139.748;2023-04-25T07:36:28;24;23;
64114;PMS5003;62188;35.640;139.748;2023-04-25T07:38:54;22;21;
64114;PMS5003;62188;35.640;139.748;2023-04-25T07:41:19;20;19;
64114;PMS5003;62188;35.640;139.748;2023-04-25T07:43:45;19;19;
64114;PMS5003;62188;35.640;139.748;2023-04-25T07:46:10;20;20;
64114;PMS5003;62188;35.640;139.748;2023-04-25T07:48:35;21;20;
64114;PMS5003;62188;35.640;139.748;2023-04-25T07:51:01;22;20;
64114;PMS5003;62188;35.640;139.748;2023-04-25T07:53:27;22;22;
64114;PMS5003;62188;35.640;139.748;2023-04-25T07:55:52;22;21;
64114;PMS5003;62188;35.640;139.748;2023-04-25T07:58:17;21;21;
64114;PMS5003;62188;35.640;139.748;2023-04-25T08:00:43;22;22;
64114;PMS5003;62188;35.640;139.748;2023-04-25T08:03:09;21;19;
64114;PMS5003;62188;35.640;139.748;2023-04-25T08:05:34;22;20;
64114;PMS5003;62188;35.640;139.748;2023-04-25T08:08:00;21;19;
64114;PMS5003;62188;35.640;139.748;2023-04-25T08:10:25;18;18;
64114;PMS5003;62188;35.640;139.748;2023-04-25T08:12:51;20;20;
64114;PMS5003;62188;35.640;139.748;2023-04-25T08:15:16;20;20;
64114;PMS5003;62188;35.640;139.748;2023-04-25T08:17:42;19;19;
64114;PMS5003;62188;35.640;139.748;2023-04-25T08:20:08;20;20;
64114;PMS5003;62188;35.640;139.748;2023-04-25T08:22:33;18;18;
64114;PMS5003;62188;35.640;139.748;2023-04-25T08:24:59;22;21;
64114;PMS5003;62188;35.640;139.748;2023-04-25T08:27:24;23;22;
64114;PMS5003;62188;35.640;139.748;2023-04-25T08:29:49;23;21;
64114;PMS5003;62188;35.640;139.748;2023-04-25T08:32:15;24;24;
64114;PMS5003;62188;35.640;139.748;2023-04-25T08:34:40;25;24;
64114;PMS5003;62188;35.640;139.748;2023-04-25T08:37:06;25;24;
64114;PMS5003;62188;35.640;139.748;2023-04-25T08:39:31;25;22;
64114;PMS5003;62188;35.640;139.748;2023-04-25T08:41:57;20;19;
64114;PMS5003;62188;35.640;139.748;2023-04-25T08:44:22;22;22;
64114;PMS5003;62188;35.640;139.748;2023-04-25T08:46:48;25;22;
64114;PMS5003;62188;35.640;139.748;2023-04-25T08:49:13;23;22;
64114;PMS5003;62188;35.640;139.748;2023-04-25T08:51:42;21;21;
64114;PMS5003;62188;35.640;139.748;2023-04-25T08:54:09;21;20;
64114;PMS5003;62188;35.640;139.748;2023-04-25T08:56:30;21;20;
64114;PMS5003;62188;35.640;139.748;2023-04-25T08:58:56;19;19;
64114;PMS5003;62188;35.640;139.748;2023-04-25T09:01:21;22;21;
64114;PMS5003;62188;35.640;139.748;2023-04-25T09:03:47;19;19;
64114;PMS5003;62188;35.640;139.748;2023-04-25T09:06:13;22;20;
64114;PMS5003;62188;35.640;139.748;2023-04-25T09:08:38;19;19;
64114;PMS5003;62188;35.640;139.748;2023-04-25T09:11:04;19;19;
64114;PMS5003;62188;35.640;139.748;2023-04-25T09:13:29;25;21;
64114;PMS5003;62188;35.640;139.748;2023-04-25T09:15:55;21;20;
64114;PMS5003;62188;35.640;139.748;2023-04-25T09:18:24;19;19;
64114;PMS5003;62188;35.640;139.748;2023-04-25T09:20:46;20;19;
64114;PMS5003;62188;35.640;139.748;2023-04-25T09:23:13;17;16;
64114;PMS5003;62188;35.640;139.748;2023-04-25T09:25:37;20;19;
64114;PMS5003;62188;35.640;139.748;2023-04-25T09:28:04;19;16;
64114;PMS5003;62188;35.640;139.748;2023-04-25T09:30:29;21;18;
64114;PMS5003;62188;35.640;139.748;2023-04-25T09:32:55;19;19;
64114;PMS5003;62188;35.640;139.748;2023-04-25T09:35:23;17;16;
64114;PMS5003;62188;35.640;139.748;2023-04-25T09:37:45;18;17;
64114;PMS5003;62188;35.640;139.748;2023-04-25T09:40:11;18;18;
64114;PMS5003;62188;35.640;139.748;2023-04-25T09:42:36;17;17;
64114;PMS5003;62188;35.640;139.748;2023-04-25T09:45:02;19;17;
64114;PMS5003;62188;35.640;139.748;2023-04-25T09:47:27;18;18;
64114;PMS5003;62188;35.640;139.748;2023-04-25T09:49:53;19;19;
64114;PMS5003;62188;35.640;139.748;2023-04-25T09:52:18;19;18;
64114;PMS5003;62188;35.640;139.748;2023-04-25T09:54:44;18;18;
64114;PMS5003;62188;35.640;139.748;2023-04-25T09:57:11;20;17;
64114;PMS5003;62188;35.640;139.748;2023-04-25T09:59:34;20;18;
64114;PMS5003;62188;35.640;139.748;2023-04-25T10:02:00;20;19;
64114;PMS5003;62188;35.640;139.748;2023-04-25T10:04:25;24;23;
64114;PMS5003;62188;35.640;139.748;2023-04-25T10:06:51;18;18;
64114;PMS5003;62188;35.640;139.748;2023-04-25T10:09:16;20;19;
64114;PMS5003;62188;35.640;139.748;2023-04-25T10:11:42;17;17;
64114;PMS5003;62188;35.640;139.748;2023-04-25T10:14:08;20;20;
64114;PMS5003;62188;35.640;139.748;2023-04-25T10:16:33;20;19;
64114;PMS5003;62188;35.640;139.748;2023-04-25T10:18:58;89;83;
64114;PMS5003;62188;35.640;139.748;2023-04-25T10:21:24;54;49;
64114;PMS5003;62188;35.640;139.748;2023-04-25T10:23:49;20;19;
64114;PMS5003;62188;35.640;139.748;2023-04-25T10:26:14;25;25;
64114;PMS5003;62188;35.640;139.748;2023-04-25T10:31:07;30;29;
64114;PMS5003;62188;35.640;139.748;2023-04-25T10:33:32;27;26;
64114;PMS5003;62188;35.640;139.748;2023-04-25T10:35:57;26;26;
64114;PMS5003;62188;35.640;139.748;2023-04-25T10:38:21;29;28;
64114;PMS5003;62188;35.640;139.748;2023-04-25T10:48:03;17;17;
64114;PMS5003;62188;35.640;139.748;2023-04-25T10:52:54;19;19;
64114;PMS5003;62188;35.640;139.748;2023-04-25T10:55:20;25;24;
64114;PMS5003;62188;35.640;139.748;2023-04-25T10:57:45;19;18;
64114;PMS5003;62188;35.640;139.748;2023-04-25T11:00:14;20;20;
64114;PMS5003;62188;35.640;139.748;2023-04-25T11:02:38;19;19;
64114;PMS5003;62188;35.640;139.748;2023-04-25T11:05:02;22;20;
64114;PMS5003;62188;35.640;139.748;2023-04-25T11:07:31;19;19;
64114;PMS5003;62188;35.640;139.748;2023-04-25T11:09:53;19;18;
64114;PMS5003;62188;35.640;139.748;2023-04-25T11:12:18;20;19;
64114;PMS5003;62188;35.640;139.748;2023-04-25T11:14:44;24;24;
64114;PMS5003;62188;35.640;139.748;2023-04-25T11:17:09;19;18;
64114;PMS5003;62188;35.640;139.748;2023-04-25T11:19:34;19;19;
64114;PMS5003;62188;35.640;139.748;2023-04-25T11:22:00;19;19;
64114;PMS5003;62188;35.640;139.748;2023-04-25T11:24:26;19;19;
64114;PMS5003;62188;35.640;139.748;2023-04-25T11:26:50;21;19;
64114;PMS5003;62188;35.640;139.748;2023-04-25T11:29:16;17;17;
64114;PMS5003;62188;35.640;139.748;2023-04-25T11:31:43;19;18;
64114;PMS5003;62188;35.640;139.748;2023-04-25T11:34:07;20;18;
64114;PMS5003;62188;35.640;139.748;2023-04-25T11:36:33;22;21;
64114;PMS5003;62188;35.640;139.748;2023-04-25T11:38:58;23;20;
64114;PMS5003;62188;35.640;139.748;2023-04-25T11:41:24;19;19;
64114;PMS5003;62188;35.640;139.748;2023-04-25T11:43:50;52;50;
64114;PMS5003;62188;35.640;139.748;2023-04-25T11:46:15;67;60;
64114;PMS5003;62188;35.640;139.748;2023-04-25T11:48:40;66;50;
64114;PMS5003;62188;35.640;139.748;2023-04-25T11:51:06;88;81;
64114;PMS5003;62188;35.640;139.748;2023-04-25T11:53:31;42;39;
64114;PMS5003;62188;35.640;139.748;2023-04-25T11:55:57;23;23;
64114;PMS5003;62188;35.640;139.748;2023-04-25T11:58:22;24;22;
64114;PMS5003;62188;35.640;139.748;2023-04-25T12:00:47;24;24;
64114;PMS5003;62188;35.640;139.748;2023-04-25T12:03:13;21;21;
64114;PMS5003;62188;35.640;139.748;2023-04-25T12:05:38;21;21;
64114;PMS5003;62188;35.640;139.748;2023-04-25T12:08:10;23;23;
64114;PMS5003;62188;35.640;139.748;2023-04-25T12:10:29;22;22;
64114;PMS5003;62188;35.640;139.748;2023-04-25T12:12:55;25;21;
64114;PMS5003;62188;35.640;139.748;2023-04-25T12:15:23;20;19;
64114;PMS5003;62188;35.640;139.748;2023-04-25T12:17:47;21;19;
64114;PMS5003;62188;35.640;139.748;2023-04-25T12:20:13;20;20;
64114;PMS5003;62188;35.640;139.748;2023-04-25T12:22:37;18;18;
64114;PMS5003;62188;35.640;139.748;2023-04-25T12:25:03;21;19;
64114;PMS5003;62188;35.640;139.748;2023-04-25T12:27:30;23;20;
64114;PMS5003;62188;35.640;139.748;2023-04-25T12:29:55;22;19;
64114;PMS5003;62188;35.640;139.748;2023-04-25T12:32:20;19;18;
64114;PMS5003;62188;35.640;139.748;2023-04-25T12:34:45;18;18;
64114;PMS5003;62188;35.640;139.748;2023-04-25T12:37:11;19;18;
64114;PMS5003;62188;35.640;139.748;2023-04-25T12:39:37;18;18;
64114;PMS5003;62188;35.640;139.748;2023-04-25T12:42:02;21;21;
64114;PMS5003;62188;35.640;139.748;2023-04-25T12:44:27;23;21;
64114;PMS5003;62188;35.640;139.748;2023-04-25T12:46:53;19;19;
64114;PMS5003;62188;35.640;139.748;2023-04-25T12:49:19;19;19;
64114;PMS5003;62188;35.640;139.748;2023-04-25T12:51:44;20;20;
64114;PMS5003;62188;35.640;139.748;2023-04-25T12:54:10;23;22;
64114;PMS5003;62188;35.640;139.748;2023-04-25T12:56:35;22;21;
64114;PMS5003;62188;35.640;139.748;2023-04-25T12:59:00;19;17;
64114;PMS5003;62188;35.640;139.748;2023-04-25T13:01:26;17;17;
64114;PMS5003;62188;35.640;139.748;2023-04-25T13:03:51;21;20;
64114;PMS5003;62188;35.640;139.748;2023-04-25T13:06:17;23;21;
64114;PMS5003;62188;35.640;139.748;2023-04-25T13:08:42;21;20;
64114;PMS5003;62188;35.640;139.748;2023-04-25T13:11:08;18;17;
64114;PMS5003;62188;35.640;139.748;2023-04-25T13:13:33;23;20;
64114;PMS5003;62188;35.640;139.748;2023-04-25T13:15:59;19;17;
64114;PMS5003;62188;35.640;139.748;2023-04-25T13:18:24;20;20;
64114;PMS5003;62188;35.640;139.748;2023-04-25T13:20:50;23;19;
64114;PMS5003;62188;35.640;139.748;2023-04-25T13:23:16;20;19;
64114;PMS5003;62188;35.640;139.748;2023-04-25T13:25:41;24;19;
64114;PMS5003;62188;35.640;139.748;2023-04-25T13:28:07;20;19;
64114;PMS5003;62188;35.640;139.748;2023-04-25T13:30:32;20;19;
64114;PMS5003;62188;35.640;139.748;2023-04-25T13:32:58;18;18;
64114;PMS5003;62188;35.640;139.748;2023-04-25T13:35:23;19;18;
64114;PMS5003;62188;35.640;139.748;2023-04-25T13:37:49;20;19;
64114;PMS5003;62188;35.640;139.748;2023-04-25T13:40:14;18;18;
64114;PMS5003;62188;35.640;139.748;2023-04-25T13:42:40;20;19;
64114;PMS5003;62188;35.640;139.748;2023-04-25T13:45:05;23;20;
64114;PMS5003;62188;35.640;139.748;2023-04-25T13:47:30;22;22;
64114;PMS5003;62188;35.640;139.748;2023-04-25T13:49:56;20;20;
64114;PMS5003;62188;35.640;139.748;2023-04-25T13:52:22;24;23;
64114;PMS5003;62188;35.640;139.748;2023-04-25T13:54:47;22;21;
64114;PMS5003;62188;35.640;139.748;2023-04-25T13:57:13;19;19;
64114;PMS5003;62188;35.640;139.748;2023-04-25T13:59:39;21;21;
64114;PMS5003;62188;35.640;139.748;2023-04-25T14:02:04;23;21;
64114;PMS5003;62188;35.640;139.748;2023-04-25T14:04:30;20;20;
64114;PMS5003;62188;35.640;139.748;2023-04-25T14:06:56;23;22;
64114;PMS5003;62188;35.640;139.748;2023-04-25T14:09:21;19;19;
64114;PMS5003;62188;35.640;139.748;2023-04-25T14:11:47;19;18;
64114;PMS5003;62188;35.640;139.748;2023-04-25T14:14:12;23;21;
64114;PMS5003;62188;35.640;139.748;2023-04-25T14:16:37;20;20;
64114;PMS5003;62188;35.640;139.748;2023-04-25T14:19:02;24;24;
64114;PMS5003;62188;35.640;139.748;2023-04-25T14:21:28;22;21;
64114;PMS5003;62188;35.640;139.748;2023-04-25T14:23:53;18;18;
64114;PMS5003;62188;35.640;139.748;2023-04-25T14:26:18;22;22;
64114;PMS5003;62188;35.640;139.748;2023-04-25T14:28:43;20;19;
64114;PMS5003;62188;35.640;139.748;2023-04-25T14:31:09;20;18;
64114;PMS5003;62188;35.640;139.748;2023-04-25T14:33:35;22;20;
64114;PMS5003;62188;35.640;139.748;2023-04-25T14:36:00;20;19;
64114;PMS5003;62188;35.640;139.748;2023-04-25T14:38:25;25;22;
64114;PMS5003;62188;35.640;139.748;2023-04-25T14:40:51;17;17;
64114;PMS5003;62188;35.640;139.748;2023-04-25T14:43:16;21;19;
64114;PMS5003;62188;35.640;139.748;2023-04-25T14:45:43;22;21;
64114;PMS5003;62188;35.640;139.748;2023-04-25T14:48:08;19;18;
64114;PMS5003;62188;35.640;139.748;2023-04-25T14:50:33;21;21;
64114;PMS5003;62188;35.640;139.748;2023-04-25T14:52:59;19;17;
64114;PMS5003;62188;35.640;139.748;2023-04-25T14:55:24;17;17;
64114;PMS5003;62188;35.640;139.748;2023-04-25T14:57:50;20;19;
64114;PMS5003;62188;35.640;139.748;2023-04-25T15:00:16;20;20;
64114;PMS5003;62188;35.640;139.748;2023-04-25T15:02:42;18;18;
64114;PMS5003;62188;35.640;139.748;2023-04-25T15:05:07;21;21;
64114;PMS5003;62188;35.640;139.748;2023-04-25T15:07:33;17;17;
64114;PMS5003;62188;35.640;139.748;2023-04-25T15:09:58;20;19;
64114;PMS5003;62188;35.640;139.748;2023-04-25T15:12:24;20;19;
64114;PMS5003;62188;35.640;139.748;2023-04-25T15:14:50;20;19;
64114;PMS5003;62188;35.640;139.748;2023-04-25T15:17:15;22;20;
64114;PMS5003;62188;35.640;139.748;2023-04-25T15:19:41;20;19;
64114;PMS5003;62188;35.640;139.748;2023-04-25T15:22:06;21;20;
64114;PMS5003;62188;35.640;139.748;2023-04-25T15:24:32;23;22;
64114;PMS5003;62188;35.640;139.748;2023-04-25T15:26:57;20;19;
64114;PMS5003;62188;35.640;139.748;2023-04-25T15:29:23;21;20;
64114;PMS5003;62188;35.640;139.748;2023-04-25T15:31:48;21;20;
64114;PMS5003;62188;35.640;139.748;2023-04-25T15:34:13;19;18;
64114;PMS5003;62188;35.640;139.748;2023-04-25T15:36:38;19;18;
64114;PMS5003;62188;35.640;139.748;2023-04-25T15:39:04;24;22;
64114;PMS5003;62188;35.640;139.748;2023-04-25T15:41:30;22;20;
64114;PMS5003;62188;35.640;139.748;2023-04-25T15:43:55;22;20;
64114;PMS5003;62188;35.640;139.748;2023-04-25T15:46:21;20;19;